Annandale, Pennsylvania
Current Conditions -  °F | °C
As of 10:55 PM on Friday 28 Nov 2014 (Local Time) from KFKL Reporting Station
Overcast Overcast  
Wind Chill: -11°   Ceiling: 3700
Heat Index: -6°   Visibility: 10mi
Dew Point: -9°   Wind: 8mph
Humidity: 80%   Direction: 190°S
Pressure: 30.17"   Gusts: NA
Location:  41.1142°N, 79.9031°W
Report Text: KFKL 290355Z AUTO 19007KT 10SM BKN037 BKN049 OVC060 M06/M09 A3017 RMK AO1
Loading
Personal Weather Stations






























Interactive Weather Map New forecast layout! Learn more

10-Day Weather Forecast

Advertisements
Track Severe Weather on mobile